Forside
METAR-TAF:

METAR-TAF

Lufthavne :

Waukegan Regional Airport

Waukegan, Illinois, USA

Breddekreds: 42-25N, længdekreds: 087-52W, højde: 222 m

Aktuelle vejr

Denne rapport blev lavet for 12 minutter siden, kl. 00:55 UTC
Vind 4 kt fra nordnordvest
Temperatur 17°C
Fugtighed 42%
Tryk 1012 hPa
Sigt: 16.1 km
Overskyet i en højde af 7500 ft

METAR: KUGN 220055Z 33004KT 10SM OVC075 17/04 A2987 RMK AO2 SLP111 LAST T01720044

Tid: 20:07 (01:07 UTC)


TAF: fraværende

Vejrobservationer og prognoser fra mere end 4000 lufthavne (METAR og TAF).

De gule og røde prikker repræsenterer de meteorologiske stationer.

Flyt musen over at se navnet på stationen.

Så klik over at se vejr observationer og prognoser.

At skifte det kort: Klik på de grønne knapper med et sort kors for at zoome ind; på den grønne knap med en bindestreg for at zoome ud; eller på de grønne pile for tilstødende kort.


METAR-TAF: